Weather at Lockhart Airstrip

Public forecast

Using degrees Celsius for public forecast. Weather courtesy of forecast.io.

Closest aviation weather report (METAR) to Lockhart Airstrip

Report is more than 2 hours old.

Closest report is Narrandera Airport, 32.0 nm (59.3 km) NNW. Retrieved 2022/05/27 10:35 UTC (3 hours ago):

YNAR 271035Z AUTO 03002KT 9999 // SCT001 OVC030 OVC098 11/11 Q1016

Closest aviation forecast (TAF) to Lockhart Airstrip

Forecast is more than 12 hours old.

Closest forecast is Wagga Wagga City Airport, 36.4 nm (67.4 km) E. Retrieved 2018/05/25 18:03 UTC (4 years ago):

TAF YSWG 251649Z 2518/2608 07008KT CAVOK